Pagrindinis puslapis
METAR-TAF:

METAR-TAF

Oro uostai :

Qurayyat, Saudo Arabija

platuma: 31-24N, ilguma: 037-16E, Aukštis: 509 m

Dabartinis oras

Ataskaita buvo paskelbta 20 minutes, ne 01:00 UTC
Vėjas 6 kt iš Vakarų/Šiaurės Vakarų
Temperatūra 17°C
Drėgmė 72%
Slėgis 1015 hPa
Matomumas 10 km arba daugiau
nėra debesų žemiau 1500 m ir nėra kamuolinių lietaus debesų

METAR: OEGT 170100Z 29006KT CAVOK 17/12 Q1015 NOSIG

Laikas: 04:20 (01:20 UTC)

Prognozė

Ataskaita buvo paskelbta 2 valandos ir 20 minutes, ne 23:00 UTC
Prognozė galioja nuo 17 metu 00 UTC su 18 metu 06 UTC
Vėjas 10 kt iš Šiaurės/Šiaurės Vakarų su gūsio iki 20 kt
Matomumas 10 km arba daugiau
nėra debesų žemiau 1500 m ir nėra kamuolinių lietaus debesų
Tapsmas
nuo 17 metu 18 UTC su 17 metu 20 UTC
Vėjas 3 kt nuo kintamojo kryptimis

TAF: OEGT 162300Z 1700/1806 34010G20KT CAVOK BECMG 1718/1720 VRB03KT

Orai ataskaitas ir orų prognozės (METAR, TAF).

turimą stotys yra geltonos ir raudonos taškus žemėlapyje.

Perkelti pele per norėdami pamatyti stoties vardą.

Tada spustelėkite, norėdami matyti oro stebėjimo ir prognozės.

Norėdami pakeisti žemėlapį: spustelėkite ant žalios mygtukų su juodo kryžiaus žemyn,; žalią mygtuką su brūkšneliu, jei norite nutolinti; arba žalių rodyklių gretimoms žemėlapius.


METAR-TAF: